Time;durP1;ratioP1;P1;durP2;ratioP2;P2;SDS_P1;SDS_P2;PMS_P1;PMS_P2;Temp;Humidity;BMP_temperature;BMP_pressure;BME280_temperature;BME280_humidity;BME280_pressure;Samples;Min_cycle;Max_cycle;Signal;HPM_P1;HPM_P2
2022/06/17 00:01:21;;;;;;;14.55;13.02;;;14.90;99.90;;;;;;5041551;28;20452;-43
2022/06/17 00:03:48;;;;;;;16.25;14.18;;;14.90;99.90;;;;;;5049491;28;20403;-43
2022/06/17 00:06:15;;;;;;;16.55;14.68;;;14.90;99.90;;;;;;5042652;28;20355;-44
2022/06/17 00:08:44;;;;;;;16.40;14.68;;;14.90;99.90;;;;;;5041597;28;20052;-43
2022/06/17 00:11:14;;;;;;;17.40;15.60;;;14.90;99.90;;;;;;5043898;28;20053;-44
2022/06/17 00:13:40;;;;;;;16.75;15.02;;;14.90;99.90;;;;;;5043416;28;20048;-46
2022/06/17 00:16:11;;;;;;;15.57;13.98;;;14.90;99.90;;;;;;5043554;28;20569;-43
2022/06/17 00:18:37;;;;;;;15.90;14.23;;;14.90;99.90;;;;;;5061883;28;20060;-43
2022/06/17 00:21:03;;;;;;;15.75;14.18;;;14.90;99.90;;;;;;5061322;28;20439;-43
2022/06/17 00:23:29;;;;;;;14.80;13.43;;;14.90;99.90;;;;;;5051196;28;20040;-43
2022/06/17 00:25:55;;;;;;;16.15;14.57;;;14.90;99.90;;;;;;5042567;28;20135;-43
2022/06/17 00:28:23;;;;;;;16.00;14.43;;;14.90;99.90;;;;;;5058587;28;20051;-44
2022/06/17 00:30:50;;;;;;;14.85;13.43;;;14.80;99.90;;;;;;5039185;28;20053;-44
2022/06/17 00:33:18;;;;;;;23.58;18.58;;;14.80;99.90;;;;;;5041885;28;20388;-46
2022/06/17 00:35:51;;;;;;;18.33;15.63;;;14.80;99.90;;;;;;5055974;28;20088;-43
2022/06/17 00:38:25;;;;;;;19.70;17.30;;;14.80;99.90;;;;;;5044868;28;20060;-43
2022/06/17 00:40:52;;;;;;;16.73;15.02;;;14.80;99.90;;;;;;5036258;28;20471;-46
2022/06/17 00:43:37;;;;;;;17.10;15.40;;;14.70;99.90;;;;;;5043868;28;20088;-43
2022/06/17 00:46:34;;;;;;;15.55;13.95;;;14.70;99.90;;;;;;5055993;28;20040;-45
2022/06/17 00:49:15;;;;;;;18.10;14.88;;;14.70;99.90;;;;;;5061992;28;20044;-44
2022/06/17 00:51:50;;;;;;;16.35;14.68;;;14.60;99.90;;;;;;5060718;28;20058;-42
2022/06/17 00:54:41;;;;;;;18.25;16.35;;;14.60;99.90;;;;;;5062012;28;20074;-45
2022/06/17 00:57:32;;;;;;;17.67;15.77;;;14.50;99.90;;;;;;5065110;28;20047;-47
2022/06/17 01:00:00;;;;;;;17.60;15.75;;;14.50;99.90;;;;;;5042106;28;20053;-44
2022/06/17 01:02:30;;;;;;;16.73;15.13;;;14.50;99.90;;;;;;5061700;28;20130;-45
2022/06/17 01:04:56;;;;;;;17.17;15.38;;;14.50;99.90;;;;;;5060999;28;20486;-44
2022/06/17 01:07:27;;;;;;;15.50;14.00;;;14.40;99.90;;;;;;5056145;28;20040;-43
2022/06/17 01:09:57;;;;;;;15.70;14.30;;;14.40;99.90;;;;;;5060088;28;20060;-43
2022/06/17 01:12:28;;;;;;;15.05;13.60;;;14.40;99.90;;;;;;5060743;28;20052;-43
2022/06/17 01:14:56;;;;;;;15.25;13.70;;;14.30;99.90;;;;;;5060602;28;20886;-45
2022/06/17 01:17:22;;;;;;;15.95;14.40;;;14.30;99.90;;;;;;5059351;28;20143;-44
2022/06/17 01:19:51;;;;;;;14.68;13.27;;;14.30;99.90;;;;;;5053675;28;20394;-43
2022/06/17 01:22:34;;;;;;;14.82;13.23;;;14.30;99.90;;;;;;5049374;28;20074;-43
2022/06/17 01:25:03;;;;;;;18.13;13.55;;;14.20;99.90;;;;;;5038954;28;20512;-43
2022/06/17 01:27:33;;;;;;;17.23;13.70;;;14.20;99.90;;;;;;5059718;28;20413;-43
2022/06/17 01:29:59;;;;;;;14.75;13.25;;;14.20;99.90;;;;;;5058156;28;20597;-44
2022/06/17 01:32:31;;;;;;;15.00;13.65;;;14.20;99.90;;;;;;5059048;28;20087;-43
2022/06/17 01:34:57;;;;;;;15.10;13.50;;;14.30;99.90;;;;;;5063590;28;20138;-44
2022/06/17 01:37:23;;;;;;;14.70;13.25;;;14.20;99.90;;;;;;5041269;28;20051;-43
2022/06/17 01:39:49;;;;;;;16.05;14.38;;;14.20;99.90;;;;;;5058094;28;20445;-43
2022/06/17 01:42:15;;;;;;;14.93;13.43;;;14.20;99.90;;;;;;5064819;28;20052;-43
2022/06/17 01:44:41;;;;;;;15.98;14.30;;;14.30;99.90;;;;;;5054194;28;20102;-43
2022/06/17 01:47:12;;;;;;;15.18;13.57;;;14.30;99.90;;;;;;5059677;28;20130;-44
2022/06/17 01:50:01;;;;;;;14.90;13.20;;;14.30;99.90;;;;;;5040618;28;20092;-44
2022/06/17 01:52:34;;;;;;;14.70;13.20;;;14.20;99.90;;;;;;5061275;28;20049;-44
2022/06/17 01:55:06;;;;;;;;;;;14.20;99.90;;;;;;5054593;28;20519;-43
2022/06/17 01:57:36;;;;;;;14.52;13.02;;;14.30;99.90;;;;;;5040983;28;20047;-43
2022/06/17 02:00:14;;;;;;;14.20;12.80;;;14.20;99.90;;;;;;5058580;28;20805;-44
2022/06/17 02:02:41;;;;;;;13.68;12.30;;;14.20;99.90;;;;;;5057827;28;20036;-45
2022/06/17 02:05:10;;;;;;;13.50;12.20;;;14.20;99.90;;;;;;5060069;28;20056;-44
2022/06/17 02:07:43;;;;;;;13.63;12.20;;;14.10;99.90;;;;;;5034417;28;20049;-43
2022/06/17 02:10:10;;;;;;;13.02;11.75;;;14.10;99.90;;;;;;5038543;28;20057;-45
2022/06/17 02:12:36;;;;;;;13.27;12.07;;;14.10;99.90;;;;;;5067627;28;20123;-45
2022/06/17 02:15:02;;;;;;;13.63;11.57;;;14.10;99.90;;;;;;5060947;28;20158;-45
2022/06/17 02:17:31;;;;;;;13.82;11.32;;;14.00;99.90;;;;;;5051398;28;20717;-50
2022/06/17 02:19:57;;;;;;;13.07;11.85;;;14.00;99.90;;;;;;5059990;28;20075;-44
2022/06/17 02:22:29;;;;;;;12.40;11.30;;;14.00;99.90;;;;;;5032626;28;20511;-43
2022/06/17 02:25:11;;;;;;;15.15;13.65;;;14.00;99.90;;;;;;5050090;28;20047;-43
2022/06/17 02:27:40;;;;;;;13.13;11.82;;;14.00;99.90;;;;;;5057219;28;20063;-43
2022/06/17 02:30:08;;;;;;;13.00;11.90;;;14.00;99.90;;;;;;5062033;28;20052;-44
2022/06/17 02:32:35;;;;;;;12.63;11.43;;;14.00;99.90;;;;;;5062251;28;20095;-43
2022/06/17 02:35:29;;;;;;;13.02;11.73;;;14.00;99.90;;;;;;5061723;28;20063;-44
2022/06/17 02:37:55;;;;;;;16.10;12.07;;;14.00;99.90;;;;;;5060061;28;20070;-46
2022/06/17 02:40:40;;;;;;;12.73;11.48;;;14.00;99.90;;;;;;5059484;28;20063;-44
2022/06/17 02:43:11;;;;;;;15.35;11.35;;;14.00;99.90;;;;;;5060678;28;20059;-42
2022/06/17 02:45:43;;;;;;;14.45;11.43;;;14.00;99.90;;;;;;5060707;28;20562;-43
2022/06/17 02:48:27;;;;;;;13.82;11.65;;;14.10;99.90;;;;;;5061324;28;20056;-46
2022/06/17 02:50:59;;;;;;;12.65;11.45;;;14.10;99.90;;;;;;5054713;28;20053;-44
2022/06/17 02:53:32;;;;;;;13.05;11.48;;;14.10;99.90;;;;;;5062589;28;20047;-44
2022/06/17 02:55:59;;;;;;;14.57;12.68;;;14.20;99.90;;;;;;5062729;28;20049;-43
2022/06/17 02:58:55;;;;;;;13.82;11.50;;;14.20;99.90;;;;;;5056562;28;20045;-45
2022/06/17 03:01:33;;;;;;;12.73;11.15;;;14.30;99.90;;;;;;5041550;28;20467;-43
2022/06/17 03:04:00;;;;;;;14.82;11.02;;;14.30;99.90;;;;;;5057466;28;20518;-45
2022/06/17 03:06:35;;;;;;;13.82;10.65;;;14.40;99.90;;;;;;5061546;28;20086;-44
2022/06/17 03:09:21;;;;;;;11.88;10.77;;;14.40;99.90;;;;;;5054101;28;20231;-43
2022/06/17 03:11:54;;;;;;;13.40;12.07;;;14.50;99.90;;;;;;5062632;28;20049;-46
2022/06/17 03:14:21;;;;;;;12.68;10.40;;;14.60;99.90;;;;;;5061712;28;20473;-44
2022/06/17 03:16:52;;;;;;;12.50;11.20;;;14.60;99.90;;;;;;5061752;28;20201;-44
2022/06/17 03:19:18;;;;;;;11.48;10.38;;;14.60;99.90;;;;;;5053998;28;20049;-43
2022/06/17 03:21:44;;;;;;;19.15;11.73;;;14.60;99.90;;;;;;5059156;28;20172;-43
2022/06/17 03:24:22;;;;;;;12.18;10.88;;;14.60;99.90;;;;;;5053406;28;20068;-44
2022/06/17 03:27:10;;;;;;;12.35;10.40;;;14.60;99.90;;;;;;5057588;28;20040;-46
2022/06/17 03:29:40;;;;;;;13.43;11.20;;;14.60;99.90;;;;;;5065391;28;20044;-43
2022/06/17 03:32:14;;;;;;;12.70;11.40;;;14.50;99.90;;;;;;5056387;28;20040;-43
2022/06/17 03:34:52;;;;;;;12.82;11.23;;;14.60;99.90;;;;;;5054155;28;20052;-44
2022/06/17 03:37:30;;;;;;;13.40;11.23;;;14.60;99.90;;;;;;5061613;28;20052;-45
2022/06/17 03:40:19;;;;;;;12.65;11.13;;;14.60;99.90;;;;;;5053254;28;20045;-43
2022/06/17 03:43:11;;;;;;;12.27;10.80;;;14.70;99.90;;;;;;5058873;28;20379;-46
2022/06/17 03:45:47;;;;;;;12.88;11.20;;;14.80;99.90;;;;;;5040643;28;20320;-47
2022/06/17 03:48:39;;;;;;;12.65;11.38;;;14.80;99.90;;;;;;5060524;28;20076;-44
2022/06/17 03:51:10;;;;;;;13.32;11.05;;;14.90;99.90;;;;;;5038922;28;20056;-44
2022/06/17 03:53:37;;;;;;;11.50;10.50;;;15.00;99.90;;;;;;5056490;28;20045;-43
2022/06/17 03:56:13;;;;;;;14.43;12.10;;;15.10;99.90;;;;;;5059263;28;20793;-43
2022/06/17 03:58:40;;;;;;;13.27;12.02;;;15.20;99.90;;;;;;5058094;28;20376;-46
2022/06/17 04:01:27;;;;;;;12.90;11.27;;;15.60;99.90;;;;;;5054599;28;20571;-43
2022/06/17 04:04:00;;;;;;;12.45;11.10;;;16.20;99.90;;;;;;5054447;28;20422;-43
2022/06/17 04:06:42;;;;;;;13.48;11.82;;;16.30;99.90;;;;;;5061264;28;20041;-44
2022/06/17 04:09:19;;;;;;;12.95;11.57;;;16.20;99.90;;;;;;5041580;28;20060;-45
2022/06/17 04:11:48;;;;;;;16.33;12.25;;;16.00;99.90;;;;;;5059770;28;20103;-43
2022/06/17 04:14:22;;;;;;;13.32;11.93;;;15.90;99.90;;;;;;5060883;28;20048;-43
2022/06/17 04:16:49;;;;;;;13.20;12.00;;;15.90;99.90;;;;;;5060887;28;20096;-42
2022/06/17 04:19:18;;;;;;;14.25;12.05;;;16.00;99.90;;;;;;5042011;28;20122;-44
2022/06/17 04:21:44;;;;;;;13.25;11.90;;;16.60;99.90;;;;;;5038498;28;20052;-43
2022/06/17 04:24:17;;;;;;;13.23;11.75;;;17.50;99.90;;;;;;5051965;28;20040;-44
2022/06/17 04:26:46;;;;;;;12.77;11.35;;;17.70;99.90;;;;;;5056209;28;20075;-44
2022/06/17 04:29:19;;;;;;;12.65;11.35;;;17.50;99.90;;;;;;5058118;28;20044;-44
2022/06/17 04:31:53;;;;;;;13.88;12.20;;;17.20;99.90;;;;;;5061056;28;20380;-44
2022/06/17 04:34:19;;;;;;;14.82;12.32;;;16.90;99.90;;;;;;5052845;28;20048;-45
2022/06/17 04:36:49;;;;;;;14.32;12.05;;;16.70;99.90;;;;;;5034507;28;20518;-43
2022/06/17 04:39:29;;;;;;;13.30;11.70;;;16.50;99.90;;;;;;5048897;28;20124;-44
2022/06/17 04:41:59;;;;;;;13.07;11.75;;;16.40;99.90;;;;;;5036589;28;20037;-43
2022/06/17 04:44:25;;;;;;;14.30;11.65;;;16.30;99.90;;;;;;5053743;28;20696;-43
2022/06/17 04:47:06;;;;;;;12.73;11.50;;;16.20;99.90;;;;;;5061542;28;20052;-45
2022/06/17 04:49:36;;;;;;;12.40;11.30;;;16.10;99.90;;;;;;5059267;28;20518;-49
2022/06/17 04:52:07;;;;;;;13.25;11.90;;;16.10;99.90;;;;;;5052371;28;20048;-45
2022/06/17 04:54:34;;;;;;;13.70;12.50;;;16.10;99.90;;;;;;5054449;28;20111;-44
2022/06/17 04:57:03;;;;;;;13.50;12.13;;;16.00;99.90;;;;;;5038577;28;20061;-44
2022/06/17 04:59:33;;;;;;;15.25;12.20;;;16.00;99.90;;;;;;5056188;28;20443;-47
2022/06/17 05:02:01;;;;;;;14.63;13.20;;;16.00;99.90;;;;;;5056915;28;20052;-45
2022/06/17 05:04:27;;;;;;;14.68;12.75;;;16.00;99.90;;;;;;5048576;28;20052;-43
2022/06/17 05:06:53;;;;;;;14.23;12.38;;;16.00;99.90;;;;;;5054588;28;20044;-44
2022/06/17 05:09:42;;;;;;;13.10;11.80;;;16.10;99.90;;;;;;5058142;28;20056;-44
2022/06/17 05:12:24;;;;;;;14.88;13.30;;;16.10;99.90;;;;;;5057676;28;20603;-43
2022/06/17 05:14:58;;;;;;;18.63;13.15;;;16.10;99.90;;;;;;5060715;28;20054;-43
2022/06/17 05:17:24;;;;;;;15.25;13.73;;;16.10;99.90;;;;;;5053951;28;20056;-43
2022/06/17 05:19:50;;;;;;;13.93;12.63;;;16.20;99.90;;;;;;5036507;28;20069;-45
2022/06/17 05:22:30;;;;;;;13.68;12.15;;;16.20;99.90;;;;;;5051365;28;20135;-44
2022/06/17 05:24:56;;;;;;;14.20;12.77;;;16.20;99.90;;;;;;5030270;28;20037;-45
2022/06/17 05:27:22;;;;;;;15.00;13.65;;;16.30;99.90;;;;;;5057355;28;20429;-45
2022/06/17 05:29:48;;;;;;;14.25;13.05;;;16.30;99.90;;;;;;5040932;28;20056;-43
2022/06/17 05:32:18;;;;;;;14.27;12.88;;;16.30;99.90;;;;;;5056255;28;20048;-43
2022/06/17 05:34:46;;;;;;;16.50;14.10;;;16.40;99.90;;;;;;5049100;28;20458;-46
2022/06/17 05:37:12;;;;;;;14.80;12.93;;;16.60;99.90;;;;;;5052865;28;20048;-44
2022/06/17 05:39:38;;;;;;;14.05;12.65;;;16.80;99.90;;;;;;5052341;28;20296;-45
2022/06/17 05:42:05;;;;;;;16.08;12.35;;;17.10;99.90;;;;;;5054962;28;20045;-48
2022/06/17 05:44:31;;;;;;;16.00;13.40;;;17.50;99.90;;;;;;5057264;28;20044;-43
2022/06/17 05:46:57;;;;;;;12.93;11.65;;;17.80;99.90;;;;;;5059131;28;20091;-44
2022/06/17 05:49:24;;;;;;;15.05;13.23;;;18.00;99.90;;;;;;5059775;28;20052;-43
2022/06/17 05:51:50;;;;;;;13.82;12.40;;;18.00;99.90;;;;;;5059885;28;20127;-44
2022/06/17 05:54:16;;;;;;;19.15;12.63;;;17.90;99.90;;;;;;5042720;28;20457;-42
2022/06/17 05:56:41;;;;;;;14.93;12.38;;;17.80;99.90;;;;;;5052139;28;20048;-45
2022/06/17 05:59:07;;;;;;;13.82;11.98;;;17.70;99.90;;;;;;5038936;28;20048;-45
2022/06/17 06:01:33;;;;;;;14.77;12.45;;;17.60;99.90;;;;;;5053010;28;20056;-47
2022/06/17 06:03:59;;;;;;;13.32;11.95;;;17.60;99.90;;;;;;5064447;28;20057;-45
2022/06/17 06:06:24;;;;;;;13.23;11.65;;;17.50;99.90;;;;;;5064915;28;20388;-45
2022/06/17 06:08:50;;;;;;;14.23;12.40;;;17.50;99.90;;;;;;5048468;28;20122;-44
2022/06/17 06:11:16;;;;;;;13.93;12.50;;;17.60;99.90;;;;;;5044728;28;20045;-43
2022/06/17 06:13:42;;;;;;;12.70;11.55;;;17.70;99.90;;;;;;5044743;28;20064;-45
2022/06/17 06:16:08;;;;;;;13.25;12.10;;;17.80;99.90;;;;;;5057599;28;20040;-43
2022/06/17 06:18:39;;;;;;;13.55;12.23;;;18.00;99.90;;;;;;5046047;28;20062;-44
2022/06/17 06:21:05;;;;;;;13.82;12.48;;;18.30;99.90;;;;;;5062936;28;20518;-43
2022/06/17 06:23:36;;;;;;;13.90;12.60;;;18.50;99.90;;;;;;5062006;28;20040;-43
2022/06/17 06:26:02;;;;;;;13.48;12.25;;;18.80;99.90;;;;;;5062792;28;20476;-43
2022/06/17 06:28:29;;;;;;;16.20;12.45;;;19.10;99.90;;;;;;5064220;28;20053;-44
2022/06/17 06:30:59;;;;;;;15.95;12.85;;;19.10;99.90;;;;;;5063988;28;20470;-44
2022/06/17 06:33:25;;;;;;;15.70;13.13;;;19.00;99.90;;;;;;5064065;28;20059;-43
2022/06/17 06:35:51;;;;;;;14.27;12.85;;;18.90;99.90;;;;;;5062042;28;20482;-43
2022/06/17 06:38:17;;;;;;;13.52;12.32;;;18.90;99.90;;;;;;5045300;28;20490;-43
2022/06/17 06:40:42;;;;;;;13.55;12.15;;;18.90;99.90;;;;;;5059970;28;20132;-45
2022/06/17 06:43:15;;;;;;;14.18;12.82;;;18.80;99.90;;;;;;5050009;28;20374;-43
2022/06/17 06:45:43;;;;;;;14.88;13.32;;;18.90;99.90;;;;;;5055079;28;20435;-43
2022/06/17 06:48:11;;;;;;;14.82;12.85;;;18.90;99.90;;;;;;5063582;28;20143;-44
2022/06/17 06:50:38;;;;;;;15.05;13.50;;;18.90;99.90;;;;;;5062865;28;20058;-42
2022/06/17 06:53:05;;;;;;;14.23;12.82;;;19.00;99.90;;;;;;5052199;28;20581;-45
2022/06/17 06:55:31;;;;;;;15.13;13.65;;;19.00;99.90;;;;;;5043997;28;20045;-42
2022/06/17 06:58:03;;;;;;;14.32;12.93;;;19.10;99.90;;;;;;5046836;28;20045;-43
2022/06/17 07:00:37;;;;;;;14.90;13.50;;;19.30;99.90;;;;;;5042502;28;20056;-43
2022/06/17 07:03:04;;;;;;;14.57;11.95;;;19.50;99.90;;;;;;5042463;28;20061;-43
2022/06/17 07:05:31;;;;;;;13.75;12.05;;;19.60;99.90;;;;;;5044021;28;20053;-44
2022/06/17 07:07:57;;;;;;;13.75;12.07;;;19.70;99.90;;;;;;5052854;28;20052;-43
2022/06/17 07:10:27;;;;;;;13.82;12.38;;;19.80;99.90;;;;;;5048153;28;20040;-43
2022/06/17 07:12:54;;;;;;;13.77;12.15;;;20.00;99.90;;;;;;5059965;28;20076;-44
2022/06/17 07:15:21;;;;;;;17.02;12.00;;;20.20;99.90;;;;;;5056055;28;20037;-44
2022/06/17 07:17:57;;;;;;;16.63;12.27;;;20.40;99.90;;;;;;5055996;28;20126;-44
2022/06/17 07:20:24;;;;;;;13.60;11.98;;;20.60;99.90;;;;;;5059083;28;20052;-43
2022/06/17 07:22:51;;;;;;;14.20;12.48;;;20.80;99.90;;;;;;5051977;28;20049;-43
2022/06/17 07:25:19;;;;;;;16.42;12.70;;;20.90;99.90;;;;;;5053622;28;20041;-43
2022/06/17 07:27:44;;;;;;;12.73;11.43;;;21.10;99.90;;;;;;5032683;28;20135;-44
2022/06/17 07:30:20;;;;;;;14.70;11.45;;;21.10;99.90;;;;;;5049142;28;20044;-43
2022/06/17 07:32:47;;;;;;;12.80;11.55;;;21.30;99.90;;;;;;5047046;28;20044;-42
2022/06/17 07:35:14;;;;;;;12.95;10.85;;;21.30;99.90;;;;;;5043577;28;20066;-47
2022/06/17 07:40:24;;;;;;;12.52;10.70;;;21.40;99.90;;;;;;5060177;28;20052;-43
2022/06/17 07:42:50;;;;;;;11.98;10.93;;;21.50;99.90;;;;;;5059221;28;20080;-44
2022/06/17 07:45:18;;;;;;;13.52;11.32;;;21.70;99.90;;;;;;5059760;28;20094;-45
2022/06/17 07:47:48;;;;;;;14.70;10.98;;;21.80;99.90;;;;;;5038867;28;20400;-44
2022/06/17 07:50:19;;;;;;;12.57;9.93;;;21.80;99.90;;;;;;5057319;28;20133;-44
2022/06/17 07:52:45;;;;;;;11.27;10.20;;;21.70;99.90;;;;;;5059651;28;20040;-43
2022/06/17 07:55:12;;;;;;;11.75;9.63;;;21.70;99.90;;;;;;5043334;28;20049;-44
2022/06/17 07:57:38;;;;;;;12.00;10.90;;;21.60;99.90;;;;;;5059513;28;20048;-43
2022/06/17 08:00:10;;;;;;;10.82;9.82;;;21.50;99.90;;;;;;5061595;28;20040;-43
2022/06/17 08:02:36;;;;;;;13.27;10.60;;;21.50;99.90;;;;;;5043289;28;20487;-43
2022/06/17 08:05:02;;;;;;;12.32;10.55;;;21.50;99.90;;;;;;5045033;28;20093;-43
2022/06/17 08:07:28;;;;;;;11.55;10.35;;;21.80;99.90;;;;;;5062650;28;20460;-43
2022/06/17 08:09:54;;;;;;;12.98;9.85;;;21.80;99.90;;;;;;5062512;28;20048;-43
2022/06/17 08:12:20;;;;;;;11.95;9.90;;;21.90;99.90;;;;;;5061908;28;20051;-44
2022/06/17 08:14:47;;;;;;;10.73;9.35;;;22.00;99.90;;;;;;5062389;28;20058;-44
2022/06/17 08:17:15;;;;;;;9.85;8.85;;;22.30;99.90;;;;;;5061880;28;20048;-43
2022/06/17 08:19:43;;;;;;;10.63;8.90;;;22.60;99.90;;;;;;5058580;28;20057;-43
2022/06/17 08:22:10;;;;;;;10.02;8.98;;;22.90;99.90;;;;;;5043835;28;20064;-45
2022/06/17 08:24:36;;;;;;;12.02;9.50;;;23.00;99.90;;;;;;5060212;28;20519;-44
2022/06/17 08:27:03;;;;;;;11.05;9.15;;;22.90;99.90;;;;;;5051360;28;20060;-43
2022/06/17 08:29:30;;;;;;;10.02;9.02;;;23.00;99.90;;;;;;5041826;28;20075;-44
2022/06/17 08:32:44;;;;;;;10.38;9.05;;;22.90;99.90;;;;;;5046192;28;20546;-44
2022/06/17 08:34:43;;;;;;;10.45;9.35;;;23.00;99.90;;;;;;5062254;28;20052;-45
2022/06/17 08:37:15;;;;;;;10.00;9.00;;;23.00;99.90;;;;;;5062951;28;20431;-45
2022/06/17 08:39:44;;;;;;;9.93;8.90;;;22.90;99.90;;;;;;5062774;28;20099;-43
2022/06/17 08:42:25;;;;;;;12.23;10.13;;;22.80;99.90;;;;;;5064800;28;20475;-43
2022/06/17 08:45:03;;;;;;;9.85;8.85;;;22.70;99.90;;;;;;5055756;28;20131;-45
2022/06/17 08:47:52;;;;;;;10.82;8.73;;;22.70;99.90;;;;;;5043747;28;20067;-43
2022/06/17 08:50:24;;;;;;;10.57;9.52;;;22.80;99.90;;;;;;5056960;28;20048;-45
2022/06/17 08:53:10;;;;;;;12.05;10.18;;;22.70;99.90;;;;;;5058790;28;20095;-44
2022/06/17 08:55:57;;;;;;;10.30;9.30;;;22.90;99.90;;;;;;5052734;28;20593;-43
2022/06/17 08:58:29;;;;;;;11.23;9.57;;;23.10;99.90;;;;;;5045934;28;20041;-43
2022/06/17 09:01:27;;;;;;;12.53;9.27;;;23.20;99.90;;;;;;5053910;28;20558;-44
2022/06/17 09:04:01;;;;;;;11.27;8.48;;;23.30;99.90;;;;;;5053695;28;20541;-44
2022/06/17 09:07:08;;;;;;;10.52;8.32;;;23.40;99.90;;;;;;5055660;28;20055;-44
2022/06/17 09:09:55;;;;;;;9.85;7.93;;;23.50;99.90;;;;;;4977690;28;20149;-44
2022/06/17 09:12:46;;;;;;;11.43;8.57;;;23.70;99.90;;;;;;4977977;28;20468;-45
2022/06/17 09:15:22;;;;;;;10.07;8.05;;;24.00;99.90;;;;;;4963176;28;20186;-44
2022/06/17 09:17:56;;;;;;;12.02;8.52;;;24.30;99.90;;;;;;4977905;28;20417;-45
2022/06/17 09:20:30;;;;;;;11.45;9.05;;;24.30;99.90;;;;;;4978291;28;20113;-44
2022/06/17 09:23:01;;;;;;;12.35;8.98;;;24.40;99.90;;;;;;4962085;28;20398;-44
2022/06/17 09:25:38;;;;;;;10.15;9.02;;;24.50;99.90;;;;;;4978648;28;20459;-43
2022/06/17 09:28:06;;;;;;;10.40;9.07;;;24.40;99.90;;;;;;4978584;28;20689;-43
2022/06/17 09:30:38;;;;;;;12.90;9.18;;;24.30;99.90;;;;;;4977563;28;20153;-44
2022/06/17 09:33:30;;;;;;;12.48;8.40;;;24.20;99.90;;;;;;4978280;28;20429;-45
2022/06/17 09:36:16;;;;;;;14.77;8.80;;;24.30;99.90;;;;;;4975837;28;20050;-45
2022/06/17 09:38:58;;;;;;;10.15;9.02;;;24.50;99.90;;;;;;4977327;28;20106;-44
2022/06/17 09:41:37;;;;;;;8.90;7.90;;;24.60;99.90;;;;;;4962414;28;20130;-46
2022/06/17 09:44:09;;;;;;;7.65;6.07;;;24.70;99.90;;;;;;4978435;28;20054;-43
2022/06/17 09:46:39;;;;;;;8.30;5.97;;;24.60;99.60;;;;;;5013073;28;20068;-44
2022/06/17 09:49:24;;;;;;;10.20;5.55;;;24.70;99.70;;;;;;5038997;28;20159;-45
2022/06/17 09:51:56;;;;;;;6.35;4.90;;;24.80;99.80;;;;;;5050527;28;20045;-43
2022/06/17 09:54:46;;;;;;;6.95;5.43;;;25.10;99.90;;;;;;5046473;28;20190;-44
2022/06/17 09:57:42;;;;;;;14.68;5.70;;;25.20;99.80;;;;;;5051815;28;20407;-43
2022/06/17 10:00:16;;;;;;;8.77;5.57;;;25.40;99.00;;;;;;5057550;28;20052;-44
2022/06/17 10:03:08;;;;;;;8.55;5.10;;;25.60;98.90;;;;;;5043173;28;20078;-46
2022/06/17 10:05:59;;;;;;;8.02;5.07;;;25.90;99.50;;;;;;5053259;28;20060;-45
2022/06/17 10:08:56;;;;;;;11.48;5.38;;;26.10;98.50;;;;;;5061385;28;20059;-45
2022/06/17 10:11:42;;;;;;;10.15;5.68;;;26.20;98.30;;;;;;5054913;28;20040;-49
2022/06/17 10:14:32;;;;;;;8.70;5.60;;;26.30;97.70;;;;;;5026413;28;20546;-47
2022/06/17 10:20:39;;;;;;;8.40;5.50;;;26.10;97.40;;;;;;5059572;28;20060;-44
2022/06/17 10:23:30;;;;;;;9.52;5.68;;;26.10;97.60;;;;;;5060930;28;20058;-43
2022/06/17 10:26:08;;;;;;;8.43;5.15;;;26.00;97.20;;;;;;5035070;28;20499;-45
2022/06/17 10:28:49;;;;;;;9.60;5.70;;;26.10;97.80;;;;;;5063747;28;20101;-44
2022/06/17 10:31:39;;;;;;;12.68;5.88;;;26.10;97.30;;;;;;5058611;28;20123;-44
2022/06/17 10:34:29;;;;;;;6.80;5.75;;;26.10;97.50;;;;;;5055614;28;20048;-45
2022/06/17 10:37:03;;;;;;;9.85;6.00;;;26.00;97.70;;;;;;5050904;28;20071;-44
2022/06/17 10:39:32;;;;;;;6.43;5.22;;;26.00;97.30;;;;;;5060939;28;20059;-44
2022/06/17 10:41:58;;;;;;;14.25;5.70;;;26.20;97.40;;;;;;5057423;28;20483;-44
2022/06/17 10:44:27;;;;;;;13.50;7.30;;;26.30;97.30;;;;;;5060116;28;20048;-44
2022/06/17 10:47:15;;;;;;;11.38;5.68;;;26.30;96.10;;;;;;5059619;28;20044;-45
2022/06/17 10:49:50;;;;;;;9.45;5.38;;;26.40;96.10;;;;;;5059141;28;20578;-46
2022/06/17 10:52:42;;;;;;;11.63;6.65;;;26.50;96.40;;;;;;5045241;28;20126;-45
2022/06/17 10:55:35;;;;;;;10.57;5.38;;;26.50;95.90;;;;;;5059133;28;20052;-44
2022/06/17 10:58:19;;;;;;;11.02;6.55;;;26.70;96.80;;;;;;5063738;28;20059;-44
2022/06/17 11:00:58;;;;;;;11.90;6.20;;;26.70;95.10;;;;;;5040767;28;20374;-44
2022/06/17 11:03:36;;;;;;;10.43;6.32;;;26.90;95.20;;;;;;5064158;28;20048;-46
2022/06/17 11:06:17;;;;;;;8.13;5.60;;;27.10;95.30;;;;;;5063387;28;20048;-47
2022/06/17 11:08:49;;;;;;;10.45;6.68;;;27.10;95.10;;;;;;5063137;28;20052;-43
2022/06/17 11:14:27;;;;;;;11.38;6.22;;;27.20;96.20;;;;;;5048306;28;20118;-45
2022/06/17 11:16:53;;;;;;;7.43;5.28;;;27.40;94.90;;;;;;5033980;28;20071;-44
2022/06/17 11:19:30;;;;;;;9.57;4.82;;;27.70;94.90;;;;;;5043208;28;20857;-43
2022/06/17 11:22:01;;;;;;;7.35;5.07;;;27.90;95.40;;;;;;4998667;28;20065;-44
2022/06/17 11:24:33;;;;;;;9.38;6.03;;;28.00;95.30;;;;;;4994636;28;20145;-46
2022/06/17 11:27:09;;;;;;;7.93;5.63;;;27.80;93.70;;;;;;5000490;28;20410;-43
2022/06/17 11:29:45;;;;;;;8.18;5.50;;;27.70;93.60;;;;;;5002067;28;20057;-44
2022/06/17 11:32:25;;;;;;;6.35;5.35;;;27.70;94.70;;;;;;4997410;28;20535;-44
2022/06/17 11:34:54;;;;;;;8.15;4.93;;;27.90;94.30;;;;;;4996840;28;20058;-47
2022/06/17 11:37:33;;;;;;;11.98;5.80;;;27.80;94.60;;;;;;5006917;28;20072;-47
2022/06/17 11:40:16;;;;;;;8.05;4.70;;;27.60;93.60;;;;;;5000025;28;20219;-45
2022/06/17 11:43:14;;;;;;;;;;;27.70;93.30;;;;;;4997914;28;20053;-45
2022/06/17 11:45:44;;;;;;;7.13;4.80;;;27.80;93.10;;;;;;4990225;28;19936;-47
2022/06/17 11:48:16;;;;;;;8.88;5.28;;;27.90;93.20;;;;;;5000353;28;20089;-45
2022/06/17 11:50:58;;;;;;;6.07;4.30;;;27.90;93.00;;;;;;4967157;28;20562;-47
2022/06/17 11:53:25;;;;;;;9.02;4.50;;;27.90;93.70;;;;;;5015492;28;20068;-45
2022/06/17 11:55:51;;;;;;;7.75;4.63;;;27.90;92.60;;;;;;5042639;28;20148;-44
2022/06/17 11:58:19;;;;;;;9.70;4.97;;;27.80;92.00;;;;;;5041799;28;20090;-44
2022/06/17 12:00:51;;;;;;;5.70;3.97;;;27.60;91.70;;;;;;5041181;28;20053;-47
2022/06/17 12:03:39;;;;;;;12.13;5.07;;;27.60;91.30;;;;;;5041459;28;20492;-45
2022/06/17 12:06:06;;;;;;;10.48;4.38;;;27.30;91.30;;;;;;5041961;28;20097;-45
2022/06/17 12:08:42;;;;;;;5.80;4.32;;;27.40;92.50;;;;;;5025711;28;20526;-45
2022/06/17 12:11:13;;;;;;;10.75;4.78;;;27.50;92.30;;;;;;5042269;28;20045;-43
2022/06/17 12:14:10;;;;;;;11.20;4.03;;;27.40;91.80;;;;;;5040298;28;20056;-45
2022/06/17 12:16:42;;;;;;;5.57;4.28;;;27.40;91.50;;;;;;5041756;28;20161;-44
2022/06/17 12:19:17;;;;;;;5.75;3.78;;;27.30;91.50;;;;;;5060783;28;20367;-44
2022/06/17 12:22:07;;;;;;;5.65;3.80;;;27.40;91.30;;;;;;5024503;28;20060;-46
2022/06/17 12:24:55;;;;;;;7.88;4.22;;;27.30;91.00;;;;;;5048174;28;20160;-44
2022/06/17 12:27:28;;;;;;;10.40;4.03;;;27.50;92.00;;;;;;5041477;28;20088;-47
2022/06/17 12:30:05;;;;;;;12.15;3.88;;;27.30;89.70;;;;;;5056858;28;20045;-45
2022/06/17 12:32:51;;;;;;;5.85;4.20;;;27.40;90.40;;;;;;5061054;28;20059;-44
2022/06/17 12:35:32;;;;;;;5.97;4.22;;;27.40;89.80;;;;;;5056156;28;20116;-45
2022/06/17 12:38:13;;;;;;;7.22;4.15;;;27.50;91.60;;;;;;5042324;28;20052;-43
2022/06/17 12:40:52;;;;;;;13.07;4.30;;;27.70;92.20;;;;;;5056752;28;20044;-45
2022/06/17 12:43:32;;;;;;;5.47;3.47;;;27.90;91.70;;;;;;5043353;28;20048;-45
2022/06/17 12:45:58;;;;;;;7.05;4.10;;;27.90;91.30;;;;;;5048424;28;20484;-46
2022/06/17 12:48:29;;;;;;;8.82;4.00;;;27.90;88.80;;;;;;5046550;28;20048;-45
2022/06/17 12:54:17;;;;;;;5.75;3.90;;;27.80;90.20;;;;;;5047616;28;20049;-45
2022/06/17 12:57:05;;;;;;;6.20;3.70;;;27.90;90.40;;;;;;5064225;28;20628;-46
2022/06/17 12:59:47;;;;;;;7.80;3.40;;;28.00;89.80;;;;;;5065070;28;20059;-46
2022/06/17 13:03:01;;;;;;;9.93;4.07;;;28.00;90.00;;;;;;5034002;28;20483;-46
2022/06/17 13:05:43;;;;;;;8.52;3.55;;;27.90;90.30;;;;;;4978249;28;20050;-48
2022/06/17 13:08:31;;;;;;;7.15;3.88;;;28.00;90.60;;;;;;4976684;28;20050;-45
2022/06/17 13:11:08;;;;;;;6.65;3.92;;;28.00;90.90;;;;;;4975280;28;20048;-45
2022/06/17 13:13:46;;;;;;;5.68;3.50;;;27.90;90.10;;;;;;4977551;28;20046;-45
2022/06/17 13:16:21;;;;;;;3.75;3.22;;;27.90;88.10;;;;;;4966473;28;20513;-45
2022/06/17 13:19:24;;;;;;;6.78;3.65;;;27.80;89.40;;;;;;4976519;28;20050;-49